createdAt,value
2018-05-06T00:00:43.887Z,87.30
2018-05-06T00:03:20.421Z,87.40
2018-05-06T00:05:49.540Z,87.50
2018-05-06T00:08:19.489Z,87.70
2018-05-06T00:10:48.213Z,88.20
2018-05-06T00:13:25.180Z,88.20
2018-05-06T00:15:54.218Z,88.20
2018-05-06T00:18:23.576Z,88.40
2018-05-06T00:20:52.433Z,88.40
2018-05-06T00:23:25.426Z,88.70
2018-05-06T00:25:56.129Z,86.80
2018-05-06T00:28:28.955Z,86.80
2018-05-06T00:30:59.786Z,87.00
2018-05-06T00:33:29.809Z,86.80
2018-05-06T00:35:58.901Z,86.60
2018-05-06T00:38:32.733Z,84.70
2018-05-06T00:41:02.205Z,84.70
2018-05-06T00:43:35.557Z,84.10
2018-05-06T00:46:05.600Z,82.90
2018-05-06T00:48:37.965Z,82.90
2018-05-06T00:51:06.899Z,84.10
2018-05-06T00:53:43.927Z,82.80
2018-05-06T00:56:12.714Z,83.30
2018-05-06T00:58:42.462Z,83.30
2018-05-06T01:01:11.304Z,82.60
2018-05-06T01:03:48.305Z,82.60
2018-05-06T01:06:17.369Z,83.20
2018-05-06T01:08:47.563Z,83.90
2018-05-06T01:11:16.303Z,82.50
2018-05-06T01:13:53.121Z,81.90
2018-05-06T01:16:22.254Z,81.90
2018-05-06T01:18:52.083Z,82.30
2018-05-06T01:21:20.834Z,83.00
2018-05-06T01:23:57.315Z,82.90
2018-05-06T01:26:26.877Z,81.50
2018-05-06T01:28:57.851Z,81.50
2018-05-06T01:31:26.985Z,81.60
2018-05-06T01:34:02.857Z,83.50
2018-05-06T01:36:32.368Z,80.40
2018-05-06T01:39:02.816Z,80.40
2018-05-06T01:41:31.585Z,82.00
2018-05-06T01:44:07.976Z,81.00
2018-05-06T01:46:36.795Z,81.20
2018-05-06T01:49:09.168Z,81.10
2018-05-06T01:51:38.973Z,81.50
2018-05-06T01:54:11.667Z,81.50
2018-05-06T01:56:40.422Z,83.00
2018-05-06T01:59:17.905Z,81.60
2018-05-06T02:01:46.668Z,82.20
2018-05-06T02:04:16.439Z,81.30
2018-05-06T02:06:45.203Z,82.30
2018-05-06T02:09:21.956Z,82.60
2018-05-06T02:11:50.659Z,82.80
2018-05-06T02:14:20.806Z,82.50
2018-05-06T02:16:49.874Z,83.30
2018-05-06T02:19:22.193Z,84.10
2018-05-06T02:21:51.720Z,85.40
2018-05-06T02:24:24.386Z,85.30
2018-05-06T02:26:53.115Z,85.80
2018-05-06T02:29:28.888Z,86.70
2018-05-06T02:31:57.724Z,86.20
2018-05-06T02:34:28.478Z,86.70
2018-05-06T02:36:57.475Z,86.70
2018-05-06T02:39:30.437Z,86.90
2018-05-06T02:41:59.131Z,87.00
2018-05-06T02:44:32.686Z,88.40
2018-05-06T02:47:02.401Z,88.40
2018-05-06T02:49:39.172Z,88.20
2018-05-06T02:52:08.037Z,88.10
2018-05-06T02:54:37.515Z,88.80
2018-05-06T02:57:06.256Z,88.90
2018-05-06T02:59:39.095Z,88.60
2018-05-06T03:02:08.032Z,89.00
2018-05-06T03:04:44.532Z,87.80
2018-05-06T03:07:13.399Z,87.80
2018-05-06T03:09:44.005Z,88.30
2018-05-06T03:12:13.864Z,89.10
2018-05-06T03:14:49.981Z,89.00
2018-05-06T03:17:19.821Z,88.90
2018-05-06T03:19:48.753Z,88.90
2018-05-06T03:22:17.445Z,88.80
2018-05-06T03:24:53.894Z,89.40
2018-05-06T03:27:22.693Z,89.10
2018-05-06T03:29:55.233Z,89.10
2018-05-06T03:32:24.247Z,88.80
2018-05-06T03:34:56.837Z,88.50
2018-05-06T03:37:25.588Z,89.00
2018-05-06T03:39:58.432Z,88.90
2018-05-06T03:42:27.895Z,88.80
2018-05-06T03:45:04.495Z,88.80
2018-05-06T03:47:33.278Z,89.00
2018-05-06T03:50:03.766Z,88.60
2018-05-06T03:52:32.580Z,89.30
2018-05-06T03:55:06.596Z,89.20
2018-05-06T03:57:46.381Z,88.80
2018-05-06T04:00:50.063Z,88.80
2018-05-06T04:03:18.805Z,88.70
2018-05-06T04:05:47.863Z,89.30
2018-05-06T04:08:16.615Z,89.30
2018-05-06T04:10:45.520Z,89.10
2018-05-06T04:13:15.901Z,88.70
2018-05-06T04:15:44.628Z,88.70
2018-05-06T04:18:17.757Z,90.10
2018-05-06T04:20:46.824Z,89.20
2018-05-06T04:23:23.608Z,89.40
2018-05-06T04:25:52.472Z,89.50
2018-05-06T04:28:22.321Z,89.70
2018-05-06T04:30:51.452Z,89.10
2018-05-06T04:33:23.967Z,89.30
2018-05-06T04:35:54.153Z,90.20
2018-05-06T04:38:26.320Z,89.80
2018-05-06T04:40:56.464Z,90.30
2018-05-06T04:43:27.717Z,90.50
2018-05-06T04:45:56.672Z,90.50
2018-05-06T04:48:33.363Z,90.70
2018-05-06T04:51:02.299Z,90.70
2018-05-06T04:53:32.321Z,90.50
2018-05-06T04:56:01.190Z,90.80
2018-05-06T04:58:37.567Z,90.80
2018-05-06T05:01:06.400Z,91.00
2018-05-06T05:03:37.048Z,91.00
2018-05-06T05:06:06.166Z,91.10
2018-05-06T05:08:38.779Z,90.90
2018-05-06T05:11:07.758Z,90.90
2018-05-06T05:13:44.099Z,91.20
2018-05-06T05:16:14.088Z,91.00
2018-05-06T05:18:43.850Z,91.00
2018-05-06T05:21:13.504Z,91.20
2018-05-06T05:23:45.942Z,91.20
2018-05-06T05:26:14.802Z,90.90
2018-05-06T05:28:51.062Z,91.20
2018-05-06T05:31:20.120Z,91.40
2018-05-06T05:33:50.861Z,91.10
2018-05-06T05:36:19.703Z,90.40
2018-05-06T05:38:53.194Z,91.10
2018-05-06T05:41:23.069Z,90.20
2018-05-06T05:43:56.502Z,90.40
2018-05-06T05:46:25.885Z,90.60
2018-05-06T05:48:57.901Z,90.40
2018-05-06T05:51:26.642Z,91.10
2018-05-06T05:54:03.752Z,90.20
2018-05-06T05:56:32.523Z,90.20
2018-05-06T05:59:03.250Z,90.90
2018-05-06T06:01:32.468Z,91.10
2018-05-06T06:04:08.893Z,90.90
2018-05-06T06:06:37.677Z,91.30
2018-05-06T06:09:08.059Z,91.40
2018-05-06T06:11:37.011Z,91.40
2018-05-06T06:14:10.987Z,91.20
2018-05-06T06:16:39.701Z,91.20
2018-05-06T06:19:16.565Z,91.30
2018-05-06T06:21:46.335Z,91.10
2018-05-06T06:24:16.877Z,91.10
2018-05-06T06:26:45.625Z,91.20
2018-05-06T06:29:22.669Z,91.00
2018-05-06T06:31:52.523Z,90.30
2018-05-06T06:34:21.272Z,90.20
2018-05-06T06:36:52.100Z,91.30
2018-05-06T06:39:22.025Z,91.20
2018-05-06T06:41:51.590Z,90.90
2018-05-06T06:44:24.308Z,90.90
2018-05-06T06:46:53.844Z,91.20
2018-05-06T06:49:26.463Z,91.20
2018-05-06T06:51:55.504Z,90.10
2018-05-06T06:54:33.025Z,90.40
2018-05-06T06:57:01.883Z,90.50
2018-05-06T06:59:30.715Z,88.80
2018-05-06T07:01:59.879Z,88.30
2018-05-06T07:04:34.467Z,88.60
2018-05-06T07:07:03.261Z,87.90
2018-05-06T07:09:34.656Z,88.50
2018-05-06T07:12:03.870Z,88.30
2018-05-06T07:14:39.806Z,88.40
2018-05-06T07:17:08.677Z,89.40
2018-05-06T07:19:41.316Z,87.20
2018-05-06T07:22:10.870Z,88.90
2018-05-06T07:24:47.021Z,88.80
2018-05-06T07:27:15.776Z,89.10
2018-05-06T07:29:48.752Z,88.30
2018-05-06T07:32:17.553Z,88.30
2018-05-06T07:34:48.689Z,88.50
2018-05-06T07:37:18.626Z,87.70
2018-05-06T07:39:54.944Z,87.60
2018-05-06T07:42:23.707Z,88.30
2018-05-06T07:44:53.672Z,87.40
2018-05-06T07:47:22.491Z,87.00
2018-05-06T07:49:59.386Z,87.30
2018-05-06T07:52:28.157Z,88.40
2018-05-06T07:54:58.835Z,87.30
2018-05-06T07:57:27.713Z,89.40
2018-05-06T08:00:04.481Z,88.70
2018-05-06T08:02:33.253Z,87.40
2018-05-06T08:05:03.690Z,87.50
2018-05-06T08:07:33.761Z,88.00
2018-05-06T08:10:05.977Z,87.90
2018-05-06T08:12:34.857Z,87.50
2018-05-06T08:15:10.821Z,87.40
2018-05-06T08:17:39.622Z,86.40
2018-05-06T08:20:12.417Z,86.00
2018-05-06T08:22:41.457Z,85.90
2018-05-06T08:25:14.243Z,86.30
2018-05-06T08:27:43.096Z,86.80
2018-05-06T08:30:16.598Z,86.00
2018-05-06T08:32:45.518Z,86.00
2018-05-06T08:35:21.462Z,85.10
2018-05-06T08:37:50.472Z,87.10
2018-05-06T08:40:21.139Z,85.30
2018-05-06T08:42:49.937Z,85.00
2018-05-06T08:45:23.479Z,87.00
2018-05-06T08:47:52.361Z,89.00
2018-05-06T08:50:28.892Z,84.90
2018-05-06T08:52:57.973Z,86.70
2018-05-06T08:55:26.857Z,85.90
2018-05-06T08:57:55.623Z,84.10
2018-05-06T09:00:29.055Z,85.00
2018-05-06T09:02:57.817Z,85.50
2018-05-06T09:05:32.236Z,82.50
2018-05-06T09:08:01.398Z,83.00
2018-05-06T09:10:34.586Z,78.80
2018-05-06T09:13:03.456Z,80.00
2018-05-06T09:15:35.265Z,78.30
2018-05-06T09:18:04.062Z,78.20
2018-05-06T09:20:36.917Z,81.30
2018-05-06T09:23:06.164Z,77.40
2018-05-06T09:25:43.014Z,79.90
2018-05-06T09:28:11.857Z,72.00
2018-05-06T09:30:42.347Z,75.10
2018-05-06T09:33:11.210Z,70.00
2018-05-06T09:35:48.406Z,69.50
2018-05-06T09:38:17.421Z,70.80
2018-05-06T09:40:46.664Z,69.20
2018-05-06T09:43:15.441Z,65.80
2018-05-06T09:45:50.161Z,71.20
2018-05-06T09:48:19.987Z,66.00
2018-05-06T09:50:52.438Z,65.90
2018-05-06T09:53:22.353Z,66.20
2018-05-06T09:55:54.120Z,63.90
2018-05-06T09:58:22.946Z,64.10
2018-05-06T10:00:56.599Z,66.40
2018-05-06T10:03:26.155Z,67.80
2018-05-06T10:05:58.112Z,68.00
2018-05-06T10:08:27.388Z,65.40
2018-05-06T10:11:03.402Z,68.30
2018-05-06T10:13:32.273Z,62.70
2018-05-06T10:16:04.808Z,61.00
2018-05-06T10:18:33.828Z,58.30
2018-05-06T10:21:10.813Z,56.80
2018-05-06T10:23:39.634Z,53.20
2018-05-06T10:26:09.276Z,54.30
2018-05-06T10:28:38.232Z,54.30
2018-05-06T10:31:15.667Z,53.10
2018-05-06T10:33:45.510Z,53.00
2018-05-06T10:36:15.059Z,55.40
2018-05-06T10:38:44.345Z,52.80
2018-05-06T10:41:17.639Z,47.10
2018-05-06T10:43:47.541Z,48.80
2018-05-06T10:46:19.451Z,50.70
2018-05-06T10:48:48.358Z,50.60
2018-05-06T10:51:22.587Z,52.00
2018-05-06T10:53:52.195Z,50.20
2018-05-06T10:56:25.036Z,50.00
2018-05-06T10:58:54.109Z,50.00
2018-05-06T11:01:27.579Z,50.10
2018-05-06T11:03:56.534Z,43.90
2018-05-06T11:06:28.083Z,53.20
2018-05-06T11:08:57.224Z,53.20
2018-05-06T11:11:29.589Z,50.20
2018-05-06T11:13:58.490Z,50.90
2018-05-06T11:16:32.023Z,46.90
2018-05-06T11:19:00.939Z,47.20
2018-05-06T11:21:38.130Z,45.50
2018-05-06T11:24:07.812Z,45.60
2018-05-06T11:26:37.581Z,45.50
2018-05-06T11:29:07.253Z,38.40
2018-05-06T11:31:39.839Z,38.40
2018-05-06T11:34:10.204Z,49.40
2018-05-06T11:36:41.499Z,43.30
2018-05-06T11:39:10.395Z,43.30
2018-05-06T11:41:47.383Z,43.20
2018-05-06T11:44:16.173Z,42.30
2018-05-06T11:46:46.551Z,38.40
2018-05-06T11:49:16.003Z,43.60
2018-05-06T11:51:52.240Z,36.00
2018-05-06T11:54:21.259Z,39.00
2018-05-06T11:56:51.729Z,42.90
2018-05-06T11:59:20.685Z,40.70
2018-05-06T12:01:54.876Z,38.80
2018-05-06T12:04:23.899Z,45.10
2018-05-06T12:06:57.364Z,37.60
2018-05-06T12:09:26.671Z,37.60
2018-05-06T12:12:02.858Z,43.20
2018-05-06T12:14:32.426Z,36.20
2018-05-06T12:17:04.831Z,36.20
2018-05-06T12:19:33.788Z,36.60
2018-05-06T12:22:05.807Z,39.20
2018-05-06T12:24:34.970Z,42.80
2018-05-06T12:27:08.493Z,39.10
2018-05-06T12:29:37.429Z,39.10
2018-05-06T12:32:10.822Z,36.50
2018-05-06T12:34:39.712Z,40.60
2018-05-06T12:37:16.202Z,40.70
2018-05-06T12:39:45.088Z,42.50
2018-05-06T12:42:14.965Z,43.50
2018-05-06T12:44:43.923Z,39.70
2018-05-06T12:47:23.560Z,35.70
2018-05-06T12:49:52.661Z,35.80
2018-05-06T12:52:22.734Z,36.10
2018-05-06T12:54:51.689Z,36.20
2018-05-06T12:57:23.447Z,39.60
2018-05-06T12:59:52.289Z,38.30
2018-05-06T13:02:25.090Z,37.80
2018-05-06T13:04:54.479Z,35.10
2018-05-06T13:07:26.990Z,34.10
2018-05-06T13:09:55.871Z,41.40
2018-05-06T13:12:27.905Z,33.80
2018-05-06T13:14:56.899Z,32.40
2018-05-06T13:17:33.348Z,33.10
2018-05-06T13:20:02.759Z,33.00
2018-05-06T13:22:31.642Z,36.60
2018-05-06T13:25:00.521Z,36.10
2018-05-06T13:27:35.095Z,35.90
2018-05-06T13:30:04.810Z,36.50
2018-05-06T13:32:38.993Z,37.60
2018-05-06T13:35:08.236Z,37.60
2018-05-06T13:37:38.210Z,32.50
2018-05-06T13:40:07.160Z,31.90
2018-05-06T13:42:41.331Z,36.90
2018-05-06T13:45:11.075Z,35.00
2018-05-06T13:47:43.394Z,35.20
2018-05-06T13:50:13.403Z,35.80
2018-05-06T13:52:46.163Z,36.40
2018-05-06T13:55:15.666Z,38.20
2018-05-06T13:57:50.521Z,37.50
2018-05-06T14:00:19.393Z,36.40
2018-05-06T14:02:51.941Z,35.40
2018-05-06T14:05:21.153Z,33.70
2018-05-06T14:07:53.248Z,36.20
2018-05-06T14:10:35.218Z,35.70
2018-05-06T14:13:04.330Z,34.60
2018-05-06T14:15:33.173Z,32.60
2018-05-06T14:18:01.989Z,35.20
2018-05-06T14:20:31.515Z,33.10
2018-05-06T14:23:00.428Z,33.70
2018-05-06T14:25:30.223Z,35.80
2018-05-06T14:28:06.308Z,35.80
2018-05-06T14:30:35.918Z,33.60
2018-05-06T14:38:11.288Z,36.70
2018-05-06T14:40:41.381Z,33.20
2018-05-06T14:43:11.842Z,33.20
2018-05-06T14:45:41.128Z,32.60
2018-05-06T14:48:15.659Z,36.80
2018-05-06T14:50:44.856Z,36.70
2018-05-06T14:53:18.846Z,36.30
2018-05-06T14:55:48.800Z,34.60
2018-05-06T14:58:18.227Z,34.60
2018-05-06T15:00:48.162Z,36.90
2018-05-06T15:03:21.496Z,32.70
2018-05-06T15:05:50.664Z,31.00
2018-05-06T15:08:23.413Z,32.60
2018-05-06T15:10:53.023Z,32.60
2018-05-06T15:13:24.956Z,33.10
2018-05-06T15:15:53.830Z,35.40
2018-05-06T15:18:25.679Z,31.80
2018-05-06T15:21:05.931Z,30.40
2018-05-06T15:23:35.320Z,31.30
2018-05-06T15:26:05.089Z,31.60
2018-05-06T15:28:34.080Z,31.40
2018-05-06T15:31:03.654Z,29.90
2018-05-06T15:33:37.791Z,29.60
2018-05-06T15:36:06.587Z,30.50
2018-05-06T15:38:41.837Z,32.00
2018-05-06T15:41:11.809Z,33.70
2018-05-06T15:43:40.694Z,33.60
2018-05-06T15:46:09.923Z,34.40
2018-05-06T15:48:40.375Z,34.60
2018-05-06T15:51:09.325Z,33.40
2018-05-06T15:53:44.996Z,32.50
2018-05-06T15:56:13.969Z,34.30
2018-05-06T15:58:46.251Z,33.60
2018-05-06T16:01:15.486Z,34.50
2018-05-06T16:04:02.790Z,34.40
2018-05-06T16:06:31.679Z,32.80
2018-05-06T16:09:02.381Z,34.30
2018-05-06T16:11:31.261Z,35.20
2018-05-06T16:14:00.198Z,37.10
2018-05-06T16:16:29.431Z,36.00
2018-05-06T16:18:58.367Z,35.90
2018-05-06T16:21:27.366Z,35.80
2018-05-06T16:23:58.290Z,35.90
2018-05-06T16:26:27.295Z,38.40
2018-05-06T16:29:03.884Z,35.40
2018-05-06T16:31:33.100Z,33.50
2018-05-06T16:34:02.776Z,36.40
2018-05-06T16:36:31.757Z,36.50
2018-05-06T16:39:05.763Z,38.00
2018-05-06T16:41:34.752Z,35.60
2018-05-06T16:44:10.678Z,36.50
2018-05-06T16:46:40.284Z,36.10
2018-05-06T16:49:11.175Z,38.60
2018-05-06T16:51:40.451Z,38.90
2018-05-06T16:54:16.621Z,38.90
2018-05-06T16:56:45.725Z,38.80
2018-05-06T16:59:15.520Z,39.90
2018-05-06T17:01:47.473Z,39.00
2018-05-06T17:04:19.679Z,39.70
2018-05-06T17:06:48.647Z,39.30
2018-05-06T17:09:21.220Z,38.20
2018-05-06T17:11:50.334Z,37.50
2018-05-06T17:14:22.574Z,40.90
2018-05-06T17:16:51.554Z,39.40
2018-05-06T17:19:24.272Z,38.40
2018-05-06T17:21:53.185Z,38.20
2018-05-06T17:24:26.766Z,40.20
2018-05-06T17:26:56.163Z,40.20
2018-05-06T17:29:32.354Z,41.60
2018-05-06T17:32:01.677Z,41.00
2018-05-06T17:34:31.572Z,41.00
2018-05-06T17:37:02.988Z,43.60
2018-05-06T17:39:34.134Z,41.80
2018-05-06T17:42:03.128Z,41.70
2018-05-06T17:44:36.334Z,43.50
2018-05-06T17:47:06.371Z,42.50
2018-05-06T17:49:38.681Z,42.40
2018-05-06T17:52:07.626Z,44.50
2018-05-06T17:54:40.491Z,43.40
2018-05-06T17:57:10.269Z,45.00
2018-05-06T17:59:46.924Z,45.00
2018-05-06T18:02:16.150Z,42.60
2018-05-06T18:04:45.294Z,43.70
2018-05-06T18:07:14.356Z,44.40
2018-05-06T18:09:47.503Z,44.80
2018-05-06T18:12:17.292Z,44.60
2018-05-06T18:14:50.554Z,44.80
2018-05-06T18:17:19.831Z,45.50
2018-05-06T18:19:53.244Z,46.20
2018-05-06T18:22:23.585Z,47.80
2018-05-06T18:24:57.345Z,47.70
2018-05-06T18:27:26.763Z,49.80
2018-05-06T18:29:57.943Z,50.00
2018-05-06T18:32:27.609Z,51.00
2018-05-06T18:35:05.407Z,52.70
2018-05-06T18:37:34.940Z,51.00
2018-05-06T18:40:04.254Z,54.00
2018-05-06T18:42:33.475Z,53.70
2018-05-06T18:45:03.419Z,55.30
2018-05-06T18:47:32.541Z,57.00
2018-05-06T18:50:08.779Z,58.80
2018-05-06T18:52:37.864Z,57.60
2018-05-06T18:55:10.403Z,58.50
2018-05-06T18:57:40.140Z,59.40
2018-05-06T19:00:13.669Z,60.10
2018-05-06T19:02:43.394Z,63.80
2018-05-06T19:05:16.287Z,65.60
2018-05-06T19:07:46.440Z,65.40
2018-05-06T19:10:16.189Z,65.70
2018-05-06T19:12:45.195Z,66.50
2018-05-06T19:15:19.072Z,67.40
2018-05-06T19:17:48.623Z,68.60
2018-05-06T19:20:20.532Z,70.60
2018-05-06T19:22:49.664Z,70.60
2018-05-06T19:25:28.831Z,71.10
2018-05-06T19:27:57.941Z,71.20
2018-05-06T19:30:27.099Z,72.00
2018-05-06T19:32:56.494Z,73.50
2018-05-06T19:35:27.991Z,73.50
2018-05-06T19:37:57.064Z,75.10
2018-05-06T19:40:28.976Z,73.20
2018-05-06T19:42:58.891Z,73.40
2018-05-06T19:45:31.724Z,73.30
2018-05-06T19:48:01.301Z,74.90
2018-05-06T19:50:36.066Z,74.30
2018-05-06T19:53:05.215Z,74.30
2018-05-06T19:55:36.971Z,75.60
2018-05-06T19:58:06.742Z,75.50
2018-05-06T20:00:39.487Z,75.50
2018-05-06T20:03:08.938Z,76.20
2018-05-06T20:05:41.216Z,74.90
2018-05-06T20:08:10.211Z,75.50
2018-05-06T20:10:44.095Z,77.20
2018-05-06T20:13:13.404Z,77.20
2018-05-06T20:15:46.243Z,73.20
2018-05-06T20:18:15.598Z,73.60
2018-05-06T20:20:48.861Z,73.30
2018-05-06T20:23:18.958Z,72.30
2018-05-06T20:25:50.801Z,71.30
2018-05-06T20:28:20.539Z,74.20
2018-05-06T20:30:53.810Z,74.20
2018-05-06T20:33:23.040Z,74.40
2018-05-06T20:35:55.028Z,73.00
2018-05-06T20:38:24.586Z,72.60
2018-05-06T20:40:56.902Z,69.60
2018-05-06T20:43:25.810Z,72.60
2018-05-06T20:46:01.843Z,71.80
2018-05-06T20:48:31.115Z,71.60
2018-05-06T20:51:02.763Z,72.70
2018-05-06T20:53:32.453Z,71.00
2018-05-06T20:56:05.313Z,71.90
2018-05-06T20:58:35.041Z,71.20
2018-05-06T21:01:06.891Z,71.20
2018-05-06T21:03:36.590Z,69.70
2018-05-06T21:06:11.415Z,68.80
2018-05-06T21:08:40.470Z,68.80
2018-05-06T21:11:13.201Z,71.10
2018-05-06T21:13:45.152Z,69.90
2018-05-06T21:16:15.901Z,69.60
2018-05-06T21:18:45.571Z,68.10
2018-05-06T21:21:16.274Z,68.10
2018-05-06T21:23:46.090Z,69.90
2018-05-06T21:26:20.470Z,69.00
2018-05-06T21:28:49.681Z,69.10
2018-05-06T21:31:22.093Z,71.50
2018-05-06T21:33:51.456Z,68.80
2018-05-06T21:36:23.041Z,70.00
2018-05-06T21:38:52.474Z,68.80
2018-05-06T21:41:25.427Z,70.80
2018-05-06T21:43:54.495Z,67.70
2018-05-06T21:46:27.976Z,70.60
2018-05-06T21:48:58.346Z,70.80
2018-05-06T21:51:31.222Z,70.70
2018-05-06T21:54:00.050Z,70.30
2018-05-06T21:56:33.383Z,69.40
2018-05-06T21:59:02.179Z,69.30
2018-05-06T22:01:34.988Z,69.70
2018-05-06T22:04:06.531Z,68.60
2018-05-06T22:06:37.085Z,70.50
2018-05-06T22:09:07.177Z,71.70
2018-05-06T22:11:40.912Z,69.70
2018-05-06T22:14:09.867Z,70.10
2018-05-06T22:16:41.568Z,68.00
2018-05-06T22:19:11.665Z,71.10
2018-05-06T22:21:44.163Z,71.10
2018-05-06T22:24:13.848Z,71.50
2018-05-06T22:26:47.652Z,71.50
2018-05-06T22:29:16.765Z,71.80
2018-05-06T22:31:47.935Z,70.30
2018-05-06T22:34:17.021Z,70.30
2018-05-06T22:36:54.037Z,71.10
2018-05-06T22:39:22.870Z,71.00
2018-05-06T22:41:52.502Z,71.00
2018-05-06T22:44:21.350Z,71.00
2018-05-06T22:46:58.118Z,71.90
2018-05-06T22:49:26.974Z,72.20
2018-05-06T22:52:00.668Z,72.80
2018-05-06T22:54:29.489Z,72.10
2018-05-06T22:57:01.723Z,72.80
2018-05-06T22:59:31.940Z,74.10
2018-05-06T23:02:04.546Z,74.70
2018-05-06T23:04:33.444Z,74.00
2018-05-06T23:07:07.142Z,74.70
2018-05-06T23:09:36.037Z,73.00
2018-05-06T23:12:12.690Z,75.00
2018-05-06T23:14:42.658Z,75.80
2018-05-06T23:17:14.001Z,75.10
2018-05-06T23:19:44.841Z,75.10
2018-05-06T23:22:15.219Z,74.90
2018-05-06T23:24:44.467Z,75.30
2018-05-06T23:27:17.374Z,76.40
2018-05-06T23:29:46.519Z,75.80
2018-05-06T23:32:19.613Z,76.40
2018-05-06T23:34:48.712Z,77.00
2018-05-06T23:37:21.439Z,78.80
2018-05-06T23:39:50.531Z,78.50
2018-05-06T23:42:26.842Z,78.00
2018-05-06T23:44:55.685Z,76.80
2018-05-06T23:47:25.113Z,77.80
2018-05-06T23:49:54.897Z,78.00
2018-05-06T23:52:28.276Z,77.90
2018-05-06T23:54:58.862Z,77.80
2018-05-06T23:57:30.265Z,77.80
2018-05-06T23:59:59.221Z,78.00
